Time;durP1;ratioP1;P1;durP2;ratioP2;P2;SDS_P1;SDS_P2;PMS_P1;PMS_P2;Temp;Humidity;BMP_temperature;BMP_pressure;BME280_temperature;BME280_humidity;BME280_pressure;Samples;Min_cycle;Max_cycle;Signal;HPM_P1;HPM_P2
2021/01/20 00:01:15;;;;;;;3.36;2.11;;;;;;;0.38;84.34;98824.41;2011029;78;22176;-72
2021/01/20 00:04:17;;;;;;;3.23;1.69;;;;;;;0.46;83.82;98817.81;2011697;80;20184;-72
2021/01/20 00:07:19;;;;;;;2.77;1.89;;;;;;;0.48;83.40;98816.16;2011899;80;20216;-71
2021/01/20 00:10:20;;;;;;;3.42;2.02;;;;;;;0.57;82.82;98803.63;2012378;80;20169;-72
2021/01/20 00:13:22;;;;;;;3.01;1.87;;;;;;;0.58;82.13;98796.84;2011777;80;20196;-72
2021/01/20 00:16:24;;;;;;;2.44;2.20;;;;;;;0.62;81.85;98793.53;2011221;78;40302;-72
2021/01/20 00:19:25;;;;;;;3.26;1.99;;;;;;;0.65;81.51;98787.63;2011977;80;20356;-72
2021/01/20 00:22:28;;;;;;;2.79;2.01;;;;;;;0.61;81.69;98784.13;2012266;80;20298;-72
2021/01/20 00:25:29;;;;;;;3.03;1.72;;;;;;;0.58;81.37;98784.94;2011947;80;20193;-72
2021/01/20 00:28:31;;;;;;;2.17;1.98;;;;;;;0.45;81.55;98780.31;2015411;80;20205;-71
2021/01/20 00:31:33;;;;;;;2.81;1.72;;;;;;;0.39;81.85;98769.97;2011991;80;21734;-72
2021/01/20 00:34:34;;;;;;;2.50;1.71;;;;;;;0.35;81.93;98775.78;2061846;70;20281;-67
2021/01/20 00:37:37;;;;;;;3.86;1.99;;;;;;;0.30;81.92;98770.56;2017704;80;20160;-67
2021/01/20 00:40:39;;;;;;;3.42;1.81;;;;;;;0.28;82.01;98768.81;2017269;80;20176;-67
2021/01/20 00:43:40;;;;;;;3.76;1.91;;;;;;;0.26;81.94;98768.78;2015272;80;20184;-67
2021/01/20 00:46:42;;;;;;;3.24;2.00;;;;;;;0.27;82.14;98761.97;2011024;77;20181;-67
2021/01/20 00:49:44;;;;;;;2.98;1.71;;;;;;;0.25;82.31;98767.03;2012091;80;20164;-67
2021/01/20 00:52:46;;;;;;;1.67;1.53;;;;;;;0.27;82.25;98761.97;2015051;80;20197;-68
2021/01/20 00:55:48;;;;;;;1.71;1.61;;;;;;;0.34;81.84;98753.63;2012455;80;20214;-67
2021/01/20 00:58:49;;;;;;;2.06;1.52;;;;;;;0.26;82.16;98750.91;2012522;80;20679;-68
2021/01/20 01:01:57;;;;;;;1.73;1.54;;;;;;;0.26;82.17;98755.13;2011204;78;20220;-67
2021/01/20 01:04:59;;;;;;;3.82;1.79;;;;;;;0.22;82.46;98745.69;2011519;80;20180;-67
2021/01/20 01:08:01;;;;;;;2.92;1.82;;;;;;;0.23;82.63;98739.75;2011929;80;20220;-67
2021/01/20 01:11:03;;;;;;;2.49;1.69;;;;;;;0.28;82.41;98733.06;2012152;80;20193;-67
2021/01/20 01:14:05;;;;;;;3.27;1.57;;;;;;;0.40;81.83;98738.50;2012020;80;20165;-68
2021/01/20 01:17:06;;;;;;;2.88;1.68;;;;;;;0.32;82.23;98734.88;2011076;77;20588;-67
2021/01/20 01:20:09;;;;;;;2.10;1.50;;;;;;;0.33;82.07;98739.16;2012355;80;20746;-67
2021/01/20 01:23:11;;;;;;;1.74;1.44;;;;;;;0.32;82.00;98734.00;2011621;80;20204;-68
2021/01/20 01:26:12;;;;;;;1.68;1.50;;;;;;;0.34;82.25;98742.56;2011725;80;20188;-68
2021/01/20 01:29:14;;;;;;;2.27;1.41;;;;;;;0.40;81.76;98737.63;2012779;80;20222;-67
2021/01/20 01:32:15;;;;;;;2.59;1.33;;;;;;;0.44;81.56;98736.88;2011469;78;27069;-68
2021/01/20 01:35:17;;;;;;;2.00;1.34;;;;;;;0.50;81.05;98730.22;2011670;80;20198;-67
2021/01/20 01:38:19;;;;;;;3.82;1.59;;;;;;;0.54;80.68;98732.03;2011849;80;20180;-67
2021/01/20 01:41:21;;;;;;;2.59;1.48;;;;;;;0.61;80.38;98730.50;2011373;80;20417;-68
2021/01/20 01:44:31;;;;;;;2.03;1.22;;;;;;;0.63;79.90;98733.94;2012094;80;20184;-68
2021/01/20 01:47:32;;;;;;;2.26;1.29;;;;;;;0.65;79.89;98726.31;2011206;78;21735;-68
2021/01/20 01:50:34;;;;;;;2.66;1.21;;;;;;;0.71;79.82;98726.44;2011771;80;20197;-68
2021/01/20 01:53:36;;;;;;;2.52;1.70;;;;;;;0.75;79.61;98725.72;2012416;80;20307;-67
2021/01/20 01:56:38;;;;;;;1.89;1.34;;;;;;;0.66;80.31;98721.25;2011869;80;20210;-67
2021/01/20 01:59:39;;;;;;;1.93;1.18;;;;;;;0.57;81.15;98718.47;2011466;80;20326;-68
2021/01/20 02:02:41;;;;;;;2.39;1.40;;;;;;;0.62;81.01;98716.03;2011583;77;29128;-68
2021/01/20 02:05:43;;;;;;;3.16;1.49;;;;;;;0.67;80.18;98709.31;2011538;80;20298;-68
2021/01/20 02:08:47;;;;;;;1.91;1.12;;;;;;;0.83;79.29;98699.50;2012353;80;20767;-68
2021/01/20 02:12:20;;;;;;;1.69;1.08;;;;;;;0.88;79.30;98697.03;2012046;80;20630;-68
2021/01/20 02:15:52;;;;;;;3.12;1.06;;;;;;;1.08;78.31;98698.38;2011020;78;29298;-69
2021/01/20 02:18:56;;;;;;;2.76;1.51;;;;;;;1.17;77.70;98695.13;2015632;80;20192;-68
2021/01/20 02:22:15;;;;;;;1.49;1.14;;;;;;;1.21;77.53;98695.22;2011994;80;20194;-68
2021/01/20 02:25:32;;;;;;;1.10;0.96;;;;;;;1.26;77.16;98691.91;2011719;80;20794;-70
2021/01/20 02:28:52;;;;;;;1.48;1.38;;;;;;;1.35;76.64;98681.88;2011880;80;20683;-68
2021/01/20 02:31:55;;;;;;;2.61;1.13;;;;;;;1.40;76.32;98678.56;2011756;78;20836;-68
2021/01/20 02:34:58;;;;;;;2.53;1.88;;;;;;;1.52;75.86;98677.97;2011311;80;20482;-68
2021/01/20 02:38:04;;;;;;;2.60;1.30;;;;;;;1.53;76.02;98677.13;2012216;80;20324;-68
2021/01/20 02:41:06;;;;;;;3.10;1.40;;;;;;;1.47;76.51;98677.03;2011816;80;20314;-68
2021/01/20 02:44:07;;;;;;;1.20;1.00;;;;;;;1.40;76.88;98678.56;2011788;80;20313;-68
2021/01/20 02:47:10;;;;;;;3.05;1.21;;;;;;;1.47;76.14;98677.88;2011091;78;20537;-68
2021/01/20 02:50:13;;;;;;;2.64;1.21;;;;;;;1.46;76.42;98672.75;2012199;80;20476;-68
2021/01/20 02:53:16;;;;;;;2.24;1.17;;;;;;;1.44;76.65;98676.97;2011634;80;21534;-69
2021/01/20 02:56:19;;;;;;;2.55;1.42;;;;;;;1.47;76.38;98669.34;2011261;80;20336;-68
2021/01/20 02:59:22;;;;;;;2.50;1.25;;;;;;;1.50;76.21;98671.97;2011940;80;20330;-68
2021/01/20 03:02:26;;;;;;;1.92;1.27;;;;;;;1.59;75.71;98671.25;2011241;77;22361;-69
2021/01/20 03:05:29;;;;;;;1.50;1.27;;;;;;;1.68;75.27;98671.47;2012562;80;20975;-68
2021/01/20 03:08:31;;;;;;;1.48;1.14;;;;;;;1.68;75.40;98664.66;2013008;80;20389;-69
2021/01/20 03:11:43;;;;;;;1.64;1.29;;;;;;;1.67;75.60;98673.16;2013235;80;20176;-68
2021/01/20 03:14:45;;;;;;;2.44;1.51;;;;;;;1.73;75.26;98669.84;2012956;80;20200;-68
2021/01/20 03:17:47;;;;;;;1.59;1.18;;;;;;;1.68;75.78;98668.91;2012077;77;20557;-69
2021/01/20 03:20:48;;;;;;;2.22;1.00;;;;;;;1.66;75.77;98668.00;2012808;80;20202;-68
2021/01/20 03:23:50;;;;;;;1.56;1.20;;;;;;;1.76;75.09;98654.53;2012669;80;20318;-70
2021/01/20 03:26:51;;;;;;;2.21;1.11;;;;;;;1.79;75.10;98655.44;2013008;80;20387;-70
2021/01/20 03:29:53;;;;;;;1.24;1.09;;;;;;;1.79;75.22;98646.91;2013335;80;20357;-70
2021/01/20 03:32:55;;;;;;;1.39;1.10;;;;;;;1.84;74.89;98647.88;2012528;77;20471;-69
2021/01/20 03:35:56;;;;;;;1.55;1.10;;;;;;;1.82;75.01;98644.44;2013186;80;20363;-69
2021/01/20 03:38:58;;;;;;;2.00;1.09;;;;;;;1.80;74.87;98636.72;2016357;80;20322;-68
2021/01/20 03:42:00;;;;;;;2.41;1.40;;;;;;;1.84;74.88;98639.34;2013072;80;20352;-68
2021/01/20 03:45:03;;;;;;;4.03;1.29;;;;;;;1.81;74.92;98627.34;2011763;80;20338;-69
2021/01/20 03:48:05;;;;;;;1.38;1.13;;;;;;;1.76;75.07;98628.94;2013127;78;20371;-69
2021/01/20 03:51:06;;;;;;;2.47;1.31;;;;;;;1.71;75.58;98623.75;2012850;80;20306;-68
2021/01/20 03:54:09;;;;;;;2.16;1.20;;;;;;;1.67;75.76;98623.69;2013238;80;21025;-68
2021/01/20 03:57:11;;;;;;;3.09;1.09;;;;;;;1.72;75.30;98619.50;2013309;80;20357;-68
2021/01/20 04:00:14;;;;;;;2.94;1.50;;;;;;;1.76;75.06;98611.91;2012423;77;20342;-69
2021/01/20 04:03:15;;;;;;;2.36;1.30;;;;;;;1.77;75.33;98612.75;2012281;80;20314;-71
2021/01/20 04:06:17;;;;;;;2.03;1.85;;;;;;;1.73;75.53;98599.06;2012513;80;20358;-70
2021/01/20 04:09:19;;;;;;;1.48;1.16;;;;;;;1.74;75.32;98605.91;2011948;80;20314;-71
2021/01/20 04:12:20;;;;;;;2.39;1.39;;;;;;;1.79;75.08;98604.25;2011338;80;20295;-70
2021/01/20 04:15:23;;;;;;;2.19;1.31;;;;;;;1.73;75.70;98604.16;2010279;78;21008;-70
2021/01/20 04:18:25;;;;;;;2.09;1.20;;;;;;;1.72;75.83;98599.88;2011328;80;20314;-70
2021/01/20 04:21:27;;;;;;;2.74;1.20;;;;;;;1.75;75.60;98607.63;2011159;80;20480;-70
2021/01/20 04:24:28;;;;;;;1.73;1.29;;;;;;;1.88;74.77;98603.59;2011662;80;20344;-70
2021/01/20 04:27:30;;;;;;;1.58;1.27;;;;;;;1.91;74.69;98603.63;2011620;80;20445;-70
2021/01/20 04:30:32;;;;;;;2.45;1.44;;;;;;;1.92;74.64;98599.38;2011669;77;21142;-70
2021/01/20 04:33:34;;;;;;;1.96;1.31;;;;;;;1.89;74.80;98589.94;2011414;80;20325;-70
2021/01/20 04:36:35;;;;;;;2.00;1.26;;;;;;;1.92;74.73;98595.13;2012158;80;20322;-70
2021/01/20 04:39:37;;;;;;;2.01;1.29;;;;;;;1.89;75.05;98589.09;2012519;80;20438;-70
2021/01/20 04:42:39;;;;;;;1.89;1.41;;;;;;;1.87;75.18;98590.75;2011695;80;20378;-70
2021/01/20 04:45:40;;;;;;;1.89;1.34;;;;;;;1.86;75.22;98577.09;2010429;77;67789;-70
2021/01/20 04:48:48;;;;;;;2.46;1.29;;;;;;;1.89;74.98;98573.72;2012212;80;20794;-70
2021/01/20 04:51:53;;;;;;;2.51;1.49;;;;;;;1.88;75.35;98574.56;2011843;80;20375;-70
2021/01/20 04:54:57;;;;;;;2.69;1.50;;;;;;;1.86;75.64;98571.13;2011714;80;20391;-70
2021/01/20 04:58:02;;;;;;;2.40;1.20;;;;;;;1.90;75.15;98571.19;2012444;80;20538;-70
2021/01/20 05:01:04;;;;;;;2.58;1.49;;;;;;;1.89;75.34;98560.94;2010889;78;20833;-70
2021/01/20 05:04:07;;;;;;;2.04;1.30;;;;;;;1.84;75.92;98565.13;2011760;80;20340;-70
2021/01/20 05:07:09;;;;;;;2.70;1.67;;;;;;;1.80;76.12;98564.22;2011687;80;20647;-70
2021/01/20 05:10:11;;;;;;;2.33;1.42;;;;;;;1.81;76.04;98558.25;2011785;80;20669;-70
2021/01/20 05:13:29;;;;;;;1.65;1.01;;;;;;;1.81;76.09;98559.13;2011947;80;21081;-70
2021/01/20 05:16:30;;;;;;;3.00;1.51;;;;;;;1.85;75.88;98566.84;2010759;78;21651;-70
2021/01/20 05:19:40;;;;;;;3.53;1.23;;;;;;;1.91;75.40;98561.81;2011935;80;20927;-70
2021/01/20 05:22:58;;;;;;;;;;;;;;;1.93;75.38;98555.03;2012069;80;20326;-70
2021/01/20 05:26:00;;;;;;;2.17;1.50;;;;;;;1.93;75.45;98553.31;2011729;80;20141;-70
2021/01/20 05:29:05;;;;;;;2.91;1.38;;;;;;;1.93;75.51;98549.91;2012065;80;20338;-70
2021/01/20 05:32:17;;;;;;;1.46;1.10;;;;;;;1.96;75.39;98543.13;2010609;77;21123;-70
2021/01/20 05:35:21;;;;;;;1.85;1.02;;;;;;;2.03;75.26;98538.97;2011702;80;20876;-70
2021/01/20 05:38:55;;;;;;;1.41;1.19;;;;;;;2.07;75.11;98540.75;2011573;80;20444;-70
2021/01/20 05:42:10;;;;;;;2.35;1.40;;;;;;;2.15;74.87;98536.59;2006675;80;20380;-70
2021/01/20 05:45:12;;;;;;;2.14;1.26;;;;;;;2.23;74.57;98531.59;2009809;80;32076;-71
2021/01/20 05:48:14;;;;;;;2.03;1.34;;;;;;;2.26;74.61;98526.50;2012215;80;20373;-71
2021/01/20 05:51:16;;;;;;;2.71;1.44;;;;;;;2.23;74.94;98521.34;2011835;80;20322;-71
2021/01/20 05:54:30;;;;;;;2.04;1.46;;;;;;;2.20;75.40;98529.84;2010989;80;20333;-70
2021/01/20 05:57:32;;;;;;;2.59;1.40;;;;;;;2.20;75.78;98534.13;2011424;80;20336;-71
2021/01/20 06:00:33;;;;;;;2.64;1.55;;;;;;;2.27;75.55;98520.56;2011003;78;20366;-71
2021/01/20 06:03:36;;;;;;;2.60;1.54;;;;;;;2.30;75.64;98516.31;2011684;80;20322;-71
2021/01/20 06:06:38;;;;;;;1.58;1.39;;;;;;;2.40;75.33;98523.31;2011282;80;20329;-71
2021/01/20 06:09:45;;;;;;;3.06;1.49;;;;;;;2.47;75.25;98521.69;2011555;80;20314;-71
2021/01/20 06:12:51;;;;;;;3.01;1.61;;;;;;;2.50;75.35;98519.16;2011601;80;20326;-71
2021/01/20 06:16:14;;;;;;;2.42;1.42;;;;;;;2.53;75.61;98511.53;2010174;77;22366;-72
2021/01/20 06:19:19;;;;;;;;;;;;;;;2.58;75.62;98506.47;2012237;80;20314;-71
2021/01/20 06:22:21;;;;;;;2.55;1.44;;;;;;;2.55;76.02;98502.16;2010884;80;20674;-72
2021/01/20 06:25:32;;;;;;;2.55;1.44;;;;;;;2.55;76.38;98507.28;2012163;80;20334;-71
2021/01/20 06:28:36;;;;;;;2.99;1.64;;;;;;;2.58;76.49;98501.34;2011848;80;20343;-71
2021/01/20 06:31:43;;;;;;;4.11;2.21;;;;;;;2.61;76.67;98501.38;2010412;78;21637;-71
2021/01/20 06:34:56;;;;;;;3.60;2.05;;;;;;;2.67;76.67;98501.44;2011455;80;20347;-71
2021/01/20 06:37:59;;;;;;;4.36;2.24;;;;;;;2.73;76.62;98493.84;2011440;80;20960;-71
2021/01/20 06:41:03;;;;;;;2.89;1.89;;;;;;;2.76;76.75;98501.56;2011514;80;20830;-72
2021/01/20 06:44:10;;;;;;;5.06;1.98;;;;;;;2.76;76.93;98488.75;2011230;80;20326;-72
2021/01/20 06:47:11;;;;;;;2.71;1.50;;;;;;;2.80;77.24;98477.69;2010813;78;20356;-73
2021/01/20 06:50:13;;;;;;;3.84;1.48;;;;;;;2.84;77.44;98486.28;2011266;80;20362;-72
2021/01/20 06:53:14;;;;;;;3.72;2.06;;;;;;;2.86;77.56;98485.44;2011176;80;20333;-72
2021/01/20 06:56:50;;;;;;;4.59;1.90;;;;;;;2.88;77.63;98473.53;2011954;80;20991;-72
2021/01/20 07:00:10;;;;;;;4.35;1.88;;;;;;;2.90;77.60;98476.97;2008605;80;20322;-72
2021/01/20 07:03:12;;;;;;;3.17;1.59;;;;;;;2.94;77.83;98477.84;2006192;77;20747;-73
2021/01/20 07:06:32;;;;;;;3.11;2.05;;;;;;;2.98;77.99;98482.16;2006659;80;20331;-72
2021/01/20 07:10:07;;;;;;;5.47;2.24;;;;;;;3.02;78.12;98476.22;2006897;80;20342;-72
2021/01/20 07:13:13;;;;;;;3.90;1.99;;;;;;;3.03;78.50;98478.78;1999781;80;20962;-73
2021/01/20 07:16:16;;;;;;;5.69;2.22;;;;;;;3.09;78.61;98465.19;2008905;78;20351;-74
2021/01/20 07:19:18;;;;;;;5.38;2.20;;;;;;;3.19;78.90;98463.56;2012677;80;20867;-73
2021/01/20 07:22:20;;;;;;;5.11;2.20;;;;;;;3.26;78.71;98450.84;2012217;80;20335;-73
2021/01/20 07:25:22;;;;;;;2.94;1.69;;;;;;;3.36;78.68;98456.91;2011713;80;20375;-74
2021/01/20 07:28:24;;;;;;;4.68;1.80;;;;;;;3.41;78.70;98459.50;2011837;80;20322;-73
2021/01/20 07:31:25;;;;;;;3.47;1.69;;;;;;;3.50;79.00;98452.75;2010729;78;20322;-75
2021/01/20 07:34:39;;;;;;;2.90;1.58;;;;;;;3.57;78.77;98446.81;2012028;80;20803;-72
2021/01/20 07:37:41;;;;;;;3.21;1.61;;;;;;;3.61;78.77;98442.59;2012078;80;20735;-73
2021/01/20 07:40:44;;;;;;;2.54;1.56;;;;;;;3.69;78.71;98437.50;2011536;80;20800;-72
2021/01/20 07:43:47;;;;;;;4.59;1.94;;;;;;;3.69;78.75;98437.50;2012021;80;21127;-73
2021/01/20 07:47:02;;;;;;;2.88;1.54;;;;;;;3.75;78.84;98445.22;2010993;77;20696;-72
2021/01/20 07:50:05;;;;;;;2.60;1.73;;;;;;;3.74;78.89;98439.25;2011812;80;20443;-72
2021/01/20 07:53:13;;;;;;;2.83;1.55;;;;;;;3.79;78.99;98444.44;2011739;80;20326;-73
2021/01/20 07:56:21;;;;;;;2.43;1.64;;;;;;;3.86;78.78;98441.91;2011281;80;20322;-75
2021/01/20 07:59:23;;;;;;;3.58;1.92;;;;;;;3.93;78.70;98442.78;2012368;80;20220;-76
2021/01/20 08:02:24;;;;;;;4.13;1.52;;;;;;;3.96;78.72;98447.13;2011299;78;21390;-73
2021/01/20 08:05:33;;;;;;;1.79;1.16;;;;;;;3.97;78.59;98446.28;2012475;80;20397;-74
2021/01/20 08:08:55;;;;;;;4.13;1.39;;;;;;;3.97;78.44;98441.13;2011804;80;20844;-73
2021/01/20 08:11:57;;;;;;;2.42;1.49;;;;;;;3.93;78.73;98446.22;2012057;80;20156;-74
2021/01/20 08:15:00;;;;;;;3.76;1.40;;;;;;;3.99;78.64;98445.41;2012761;80;20322;-73
2021/01/20 08:18:02;;;;;;;3.84;1.50;;;;;;;4.01;78.44;98448.84;2012121;78;20542;-73
2021/01/20 08:21:07;;;;;;;3.61;1.80;;;;;;;4.05;78.50;98448.03;2011688;80;20350;-74
2021/01/20 08:24:09;;;;;;;2.05;1.20;;;;;;;4.10;78.47;98441.19;2012293;80;20727;-74
2021/01/20 08:27:14;;;;;;;3.91;1.40;;;;;;;4.13;78.41;98442.91;2012299;80;20434;-74
2021/01/20 08:30:32;;;;;;;3.83;1.26;;;;;;;4.19;78.20;98430.13;2011385;78;20529;-74
2021/01/20 08:33:34;;;;;;;3.05;1.31;;;;;;;4.25;78.08;98425.88;2012602;80;20369;-74
2021/01/20 08:36:35;;;;;;;2.69;1.24;;;;;;;4.30;77.94;98425.03;2012387;80;20364;-74
2021/01/20 08:39:52;;;;;;;2.89;1.30;;;;;;;4.33;77.83;98414.78;2012446;80;20338;-74
2021/01/20 08:42:55;;;;;;;3.75;1.36;;;;;;;4.38;77.72;98415.66;2012321;80;20318;-74
2021/01/20 08:46:21;;;;;;;2.88;1.33;;;;;;;4.44;77.60;98413.97;2011208;78;22564;-75
2021/01/20 08:49:26;;;;;;;4.31;1.63;;;;;;;4.57;77.33;98414.00;2013032;80;20357;-74
2021/01/20 08:52:47;;;;;;;2.53;1.04;;;;;;;4.68;76.79;98397.78;2012173;80;20338;-74
2021/01/20 08:55:54;;;;;;;2.39;1.00;;;;;;;4.80;76.66;98396.94;2011444;80;20346;-73
2021/01/20 08:58:56;;;;;;;4.60;1.27;;;;;;;4.95;76.32;98393.53;2012039;80;20214;-74
2021/01/20 09:02:19;;;;;;;2.20;0.98;;;;;;;5.12;76.02;98391.84;2011212;77;20841;-74
2021/01/20 09:05:33;;;;;;;3.21;1.59;;;;;;;5.30;75.52;98398.75;2011674;80;20372;-74
2021/01/20 09:08:36;;;;;;;2.65;1.15;;;;;;;5.47;74.75;98399.59;2012328;80;20326;-75
2021/01/20 09:11:40;;;;;;;3.11;0.93;;;;;;;5.60;74.05;98410.75;2012284;80;20763;-75
2021/01/20 09:14:42;;;;;;;2.16;1.04;;;;;;;5.66;73.79;98403.88;2012054;80;20744;-74
2021/01/20 09:17:43;;;;;;;6.38;1.26;;;;;;;5.69;73.71;98405.59;2011301;78;23913;-74
2021/01/20 09:20:46;;;;;;;2.88;0.90;;;;;;;5.70;73.61;98394.44;2012430;80;20443;-74
2021/01/20 09:23:52;;;;;;;1.59;0.96;;;;;;;5.75;73.41;98393.59;2011841;80;20375;-74
2021/01/20 09:26:53;;;;;;;2.38;1.02;;;;;;;5.75;73.63;98385.84;2011966;80;20367;-74
2021/01/20 09:29:55;;;;;;;2.76;1.00;;;;;;;5.78;73.65;98377.25;2012335;80;20847;-74
2021/01/20 09:32:57;;;;;;;4.03;1.30;;;;;;;5.79;73.58;98376.41;2011685;77;20794;-73
2021/01/20 09:36:00;;;;;;;2.36;1.13;;;;;;;5.79;73.94;98378.97;2011875;80;20421;-74
2021/01/20 09:39:03;;;;;;;2.25;1.00;;;;;;;5.87;73.82;98374.66;2012304;80;20310;-74
2021/01/20 09:42:05;;;;;;;3.08;1.08;;;;;;;5.92;73.56;98374.66;2011135;80;20322;-73
2021/01/20 09:45:10;;;;;;;3.38;0.90;;;;;;;5.98;73.26;98370.38;2009802;80;20429;-74
2021/01/20 09:48:11;;;;;;;3.04;0.94;;;;;;;6.06;73.23;98372.91;2009833;78;21777;-74
2021/01/20 09:51:13;;;;;;;3.74;1.11;;;;;;;6.12;73.19;98372.06;2010939;80;20341;-74
2021/01/20 09:54:15;;;;;;;3.24;0.99;;;;;;;6.16;72.99;98363.47;2011699;80;20347;-74
2021/01/20 09:57:17;;;;;;;4.81;1.19;;;;;;;6.19;72.92;98361.72;2011926;80;20299;-73
2021/01/20 10:00:19;;;;;;;1.48;1.00;;;;;;;6.20;73.16;98341.97;2011082;78;29134;-74
2021/01/20 10:03:20;;;;;;;3.90;0.90;;;;;;;6.29;72.98;98345.38;2011727;80;20891;-74
2021/01/20 10:06:22;;;;;;;3.65;0.88;;;;;;;6.35;73.05;98341.91;2011152;80;20341;-74
2021/01/20 10:09:25;;;;;;;1.81;1.11;;;;;;;6.43;72.46;98327.22;2012284;80;20310;-75
2021/01/20 10:12:27;;;;;;;2.20;0.80;;;;;;;6.53;72.43;98331.50;2011668;80;20431;-75
2021/01/20 10:15:31;;;;;;;1.76;0.74;;;;;;;6.61;72.34;98326.28;2011148;78;24232;-75
2021/01/20 10:18:33;;;;;;;2.29;0.70;;;;;;;6.69;72.05;98328.81;2011926;80;20387;-75
2021/01/20 10:21:34;;;;;;;3.11;1.06;;;;;;;6.74;71.89;98322.75;2011265;80;20333;-77
2021/01/20 10:24:36;;;;;;;3.11;0.88;;;;;;;6.86;71.91;98322.69;2012412;80;20338;-75
2021/01/20 10:27:37;;;;;;;1.69;0.88;;;;;;;6.98;71.65;98321.72;2012104;80;20791;-76
2021/01/20 10:30:39;;;;;;;1.70;0.81;;;;;;;7.06;70.91;98313.94;2011820;78;21860;-76
2021/01/20 10:33:42;;;;;;;4.74;1.31;;;;;;;7.14;70.41;98314.72;2011591;80;20322;-77
2021/01/20 10:36:44;;;;;;;1.30;0.68;;;;;;;7.14;70.95;98306.97;2011694;80;20528;-76
2021/01/20 10:39:45;;;;;;;2.66;1.10;;;;;;;7.16;70.84;98311.25;2010900;80;20360;-75
2021/01/20 10:42:47;;;;;;;2.21;0.80;;;;;;;7.18;70.99;98306.09;2011371;80;21119;-75
2021/01/20 10:45:49;;;;;;;4.82;1.24;;;;;;;7.26;71.21;98301.72;2010593;77;21125;-75
2021/01/20 10:48:56;;;;;;;3.21;0.84;;;;;;;7.33;71.08;98285.31;2010549;80;20367;-75
2021/01/20 10:51:57;;;;;;;2.10;0.75;;;;;;;7.44;71.03;98280.03;2011031;80;20338;-75
2021/01/20 10:54:59;;;;;;;2.58;0.77;;;;;;;7.55;70.95;98273.91;2014548;80;20338;-75
2021/01/20 10:58:01;;;;;;;3.92;0.85;;;;;;;7.61;70.58;98270.41;2015497;80;21097;-75
2021/01/20 11:01:03;;;;;;;4.86;0.80;;;;;;;7.64;70.12;98257.44;2010919;78;23648;-75
2021/01/20 11:04:05;;;;;;;4.60;1.31;;;;;;;7.67;70.55;98253.97;2011459;80;20379;-75
2021/01/20 11:07:07;;;;;;;1.64;0.66;;;;;;;7.70;70.53;98256.50;2015426;80;20380;-75
2021/01/20 11:10:10;;;;;;;3.85;0.84;;;;;;;7.75;70.14;98236.66;2012085;80;20846;-75
2021/01/20 11:13:12;;;;;;;2.66;0.96;;;;;;;7.83;70.68;98233.09;2010900;80;20367;-76
2021/01/20 11:16:43;;;;;;;3.61;0.86;;;;;;;7.89;70.02;98227.84;2000079;80;988048;-76
2021/01/20 11:20:16;;;;;;;2.88;0.89;;;;;;;7.94;70.08;98220.06;2010963;80;20180;-76
2021/01/20 11:23:42;;;;;;;4.44;0.82;;;;;;;8.02;70.11;98219.94;2012388;80;20348;-78
2021/01/20 11:27:14;;;;;;;1.44;0.86;;;;;;;8.03;69.88;98204.41;2012048;80;21059;-76
2021/01/20 11:31:50;;;;;;;4.79;1.41;;;;;;;8.14;69.76;98207.72;2011375;80;20468;-76
2021/01/20 11:38:36;;;;;;;2.89;0.88;;;;;;;8.51;68.52;98191.69;2012772;80;20432;-76
2021/01/20 11:42:05;;;;;;;2.31;0.74;;;;;;;8.66;68.62;98186.28;2011901;80;20246;-76
2021/01/20 11:45:20;;;;;;;4.40;0.56;;;;;;;8.73;67.41;98179.28;2012053;80;20387;-76
2021/01/20 11:48:38;;;;;;;2.51;0.60;;;;;;;8.78;67.35;98174.88;2012211;80;20322;-76
2021/01/20 11:52:17;;;;;;;1.50;0.78;;;;;;;8.79;67.26;98166.22;2012252;80;20886;-75
2021/01/20 11:55:36;;;;;;;4.11;1.04;;;;;;;8.76;67.13;98155.91;2012240;80;20994;-77
2021/01/20 11:59:01;;;;;;;2.92;0.84;;;;;;;8.75;67.34;98144.72;2013084;80;20310;-77
2021/01/20 12:02:46;;;;;;;1.91;0.68;;;;;;;8.78;67.35;98143.81;2011829;77;26053;-75
2021/01/20 12:10:33;;;;;;;2.24;0.64;;;;;;;8.86;67.39;98120.41;2011923;80;20327;-77
2021/01/20 12:14:14;;;;;;;3.56;0.60;;;;;;;9.01;67.65;98105.44;2012822;80;20214;-76
2021/01/20 12:17:54;;;;;;;1.71;0.65;;;;;;;9.17;67.24;98107.75;2012581;77;25903;-77
2021/01/20 12:21:29;;;;;;;1.31;0.63;;;;;;;9.31;66.61;98095.34;2009195;80;20284;-77
2021/01/20 12:25:44;;;;;;;1.51;0.60;;;;;;;9.45;66.10;98097.66;2011511;80;20448;-76
2021/01/20 12:29:22;;;;;;;1.98;0.70;;;;;;;9.56;65.45;98088.78;2011855;80;20790;-76
2021/01/20 12:32:41;;;;;;;2.09;0.73;;;;;;;9.68;65.64;98077.28;2011270;77;29631;-77
2021/01/20 12:36:38;;;;;;;2.47;0.69;;;;;;;9.80;65.13;98077.03;2012223;80;20823;-76
2021/01/20 12:40:22;;;;;;;2.95;1.49;;;;;;;9.81;65.24;98075.28;2011524;80;20315;-77
2021/01/20 12:44:01;;;;;;;1.25;0.60;;;;;;;9.87;65.26;98059.56;2010947;80;21108;-78
2021/01/20 12:47:22;;;;;;;1.54;0.74;;;;;;;9.92;65.06;98055.16;2000392;80;1006380;-76
2021/01/20 12:51:10;;;;;;;3.29;0.98;;;;;;;9.91;64.79;98043.09;2012256;80;20245;-76
2021/01/20 12:55:13;;;;;;;2.81;0.76;;;;;;;9.91;64.47;98037.91;2012355;80;20836;-76
2021/01/20 12:58:54;;;;;;;2.01;0.69;;;;;;;9.95;64.66;98032.59;2007512;80;20852;-77
2021/01/20 13:02:18;;;;;;;2.39;0.79;;;;;;;9.95;64.29;98022.22;2014717;80;21274;-77
2021/01/20 13:06:09;;;;;;;1.91;0.79;;;;;;;9.98;64.60;98018.72;2012220;80;20563;-77
2021/01/20 13:09:34;;;;;;;1.55;0.66;;;;;;;10.03;64.35;98011.66;2012130;80;20404;-78
2021/01/20 13:13:05;;;;;;;5.26;2.09;;;;;;;10.06;64.15;98009.00;2009680;80;20487;-78
2021/01/20 13:16:53;;;;;;;3.36;0.79;;;;;;;10.00;64.42;98009.13;2000948;80;1001146;-77
2021/01/20 13:20:29;;;;;;;3.79;0.81;;;;;;;10.04;63.57;98008.16;2015375;80;20168;-77
2021/01/20 13:23:54;;;;;;;1.95;0.50;;;;;;;10.11;63.97;97995.94;2010525;80;20732;-76
2021/01/20 13:27:23;;;;;;;3.97;0.70;;;;;;;10.13;63.67;97992.41;2004038;80;20214;-77
2021/01/20 13:30:53;;;;;;;3.28;0.71;;;;;;;10.11;63.91;97989.00;2000817;80;998125;-76
2021/01/20 13:34:11;;;;;;;2.67;0.80;;;;;;;10.14;63.88;97977.69;2012239;80;20837;-77
2021/01/20 13:41:31;;;;;;;;;;;;;;;;;;;;;
2021/01/20 13:44:51;;;;;;;2.69;0.60;;;;;;;10.22;63.74;97955.03;2012049;80;20301;-78
2021/01/20 13:48:17;;;;;;;1.80;0.77;;;;;;;10.26;62.63;97951.47;2012256;77;24126;-78
2021/01/20 13:52:00;;;;;;;2.20;0.61;;;;;;;10.19;62.98;97955.06;2012123;80;20704;-78
2021/01/20 13:55:59;;;;;;;2.80;0.51;;;;;;;10.17;63.09;97949.06;2007620;80;20180;-78
2021/01/20 13:59:47;;;;;;;;;;;;;;;;;;;;;
2021/01/20 14:03:18;;;;;;;2.64;0.52;;;;;;;10.05;62.80;97952.81;2009862;80;20751;-78
2021/01/20 14:06:36;;;;;;;;;;;;;;;;;;;;;
2021/01/20 14:10:16;;;;;;;1.45;0.56;;;;;;;10.04;62.73;97945.09;2010287;80;20352;-78
2021/01/20 14:13:47;;;;;;;2.69;0.60;;;;;;;10.02;62.22;97946.88;2010605;80;20345;-77
2021/01/20 14:17:42;;;;;;;1.85;0.50;;;;;;;10.02;62.04;97949.47;2011001;80;20340;-77
2021/01/20 14:21:09;;;;;;;2.38;0.51;;;;;;;9.98;62.69;97951.28;2010677;80;20476;-77
2021/01/20 14:24:25;;;;;;;3.24;0.56;;;;;;;9.91;62.95;97950.59;2010462;80;21096;-75
2021/01/20 14:27:28;;;;;;;4.81;0.68;;;;;;;9.87;63.08;97948.09;2010777;80;20339;-74
2021/01/20 14:30:29;;;;;;;4.25;0.57;;;;;;;9.83;63.21;97936.97;2009801;78;20383;-75
2021/01/20 14:33:31;;;;;;;2.44;0.54;;;;;;;9.81;63.48;97943.06;2009829;80;20325;-74
2021/01/20 14:36:33;;;;;;;3.08;0.90;;;;;;;9.77;63.39;97946.63;2010942;80;20435;-75
2021/01/20 14:39:34;;;;;;;3.04;0.90;;;;;;;9.70;63.46;97945.94;2010602;80;20208;-75
2021/01/20 14:42:36;;;;;;;2.90;0.68;;;;;;;9.68;64.30;97939.91;2011069;80;20326;-74
2021/01/20 14:45:38;;;;;;;3.11;0.61;;;;;;;9.67;64.56;97940.81;2009799;77;20860;-74
2021/01/20 14:48:39;;;;;;;2.60;0.57;;;;;;;9.67;64.71;97943.41;2010852;80;20334;-76
2021/01/20 14:51:43;;;;;;;2.55;0.60;;;;;;;9.67;64.54;97935.63;2010702;80;20298;-76
2021/01/20 14:54:47;;;;;;;3.13;0.75;;;;;;;9.68;64.33;97939.91;2009591;80;20325;-76
2021/01/20 14:57:49;;;;;;;2.44;0.51;;;;;;;9.63;64.19;97932.25;2010658;80;20310;-76
2021/01/20 15:00:50;;;;;;;2.63;0.68;;;;;;;9.57;64.38;97937.59;2009654;80;21777;-76
2021/01/20 15:03:52;;;;;;;2.79;0.81;;;;;;;9.53;64.44;97935.97;2010382;80;20176;-77
2021/01/20 15:06:54;;;;;;;2.01;0.61;;;;;;;9.45;65.04;97937.03;2012907;80;20472;-76
2021/01/20 15:09:56;;;;;;;2.99;0.66;;;;;;;9.41;65.43;97925.03;2010617;80;20226;-76
2021/01/20 15:12:57;;;;;;;1.84;0.51;;;;;;;9.40;65.16;97921.59;2009797;80;20361;-76
2021/01/20 15:15:59;;;;;;;1.09;0.70;;;;;;;9.36;64.27;97926.00;2008955;78;20216;-78
2021/01/20 15:19:01;;;;;;;3.01;0.80;;;;;;;9.35;64.58;97918.28;2011114;80;20458;-74
2021/01/20 15:22:03;;;;;;;1.08;0.64;;;;;;;9.36;64.56;97915.66;2010448;80;20330;-74